CheckWX is a tool to help pilots better visualize weather data.  It is not intended as a substitute for an official pre-flight weather briefing.

06:03:19 UTC

CYMA METAR
Mayo Airport
Mayo, Canada
Current

1 hour ago

CYMA 200500Z 00000KT 20SM BKN110 M19/M21 A3001 RMK AC5 SLP219
Observed
Feb-20 @ 05:00 UTC
Visibility
32,187 meters
Flight Rules
VFR
Cloud Levels
  • Broken at 11,000' AGL
Temperature
-19°C / -2°F
Dewpoint
-21°C / -6°F
Humidity
84%
Altimeter
30.01" Hg
Pressure
1021.9 hPa
Previous

2 hours ago

CYMA 200400Z VRB02KT 20SM SCT100 M15/M16 A3000 RMK AC3 SLP211
Observed
Feb-20 @ 04:00 UTC
Wind
  • Variable at 2 KTS
Visibility
32,187 meters
Flight Rules
VFR
Cloud Levels
  • Scattered at 10,000' AGL
Temperature
-15°C / 5°F
Dewpoint
-16°C / 3°F
Humidity
92%
Altimeter
30" Hg
Pressure
1021.1 hPa
Previous

3 hours ago

CYMA 200300Z VRB02KT 25SM FEW015 SCT045 BKN100 M14/M15 A2998 RMK SC1SC2AC2 SLP205
Observed
Feb-20 @ 03:00 UTC
Wind
  • Variable at 2 KTS
Visibility
40,234 meters
Flight Rules
VFR
Cloud Levels
  • Few at 1,500' AGL
  • Scattered at 4,500' AGL
  • Broken at 10,000' AGL
Temperature
-14°C / 7°F
Dewpoint
-15°C / 5°F
Humidity
92%
Altimeter
29.98" Hg
Pressure
1020.5 hPa